Airfield :
LOGIN :

Register | Disclaimer

   EN    FR    IT 

 










Legend :    VFR   Marginal VFR   IFR   Intensive IFR   Very Intensive IFR
Visi :
Ceiling :
>= 8 km
>= 3000ft
5 to 8 km
1000 to 3000 ft
1500m to 5 km
500 to 1000 ft
800 to 1500m
200 to 500 ft
< 800m
< 200 ft
Symbols :   Thunderstorms  Fog  Heavy snow  Heavy precipitations  Wind > 20 kt
SIGMETs :     Misc.  Thunderstorms  Icing  Turbulence  Mountain Waves  Volcanic Ashes






- Airport Elevation : 49 ft
- IATA code : SEN


EGMC - Southend

CURRENT METAR :
  • 241020Z 21003KT 6000 FEW006 BKN016 06/05 Q1023

EXPIRED METARs :
  • 240950Z 21003KT 7000 FEW006 BKN020 05/05 Q1023
  • 240920Z 22003KT 6000 FEW007 BKN021 05/05 Q1023
  • 240850Z 19004KT 6000 -RADZ FEW009 BKN017 05/05 Q1023
  • 240820Z 22002KT 6000 -RADZ FEW009 BKN015 05/05 Q1023
  • 240750Z 29002KT 5000 -RADZ FEW009 BKN015 05/05 Q1023
  • 240720Z 28002KT 6000 -RADZ SCT007 BKN016 05/05 Q1023

TAF TAF EGMC
Valid from the 24 at 09:00 until the 24 at 18:00 UTC


240801Z 2409/2418 21003KT 9999 BKN016
TEMPO 2409/2418 8000 BKN008
PROB40
TEMPO 2409/2415 4000 BR BKN004



MET'MAP, your aeronautical weather chart ! - Copyright ORBIFLY December 2007 - Disclaimer

ORBIFLY MET'MAP TEAM :

Programming & Development : Alexandra Zaïnal
Concept & original design : Baudouin d'Aumeries
Assistance for programming : Marc-Olivier Méhu
Technical & hardware support : Manuel Goepfert

Contact : metmap@orbifly.com




SOURCES & CREDITS :

   NOAA